Time;durP1;ratioP1;P1;durP2;ratioP2;P2;SDS_P1;SDS_P2;PMS_P1;PMS_P2;Temp;Humidity;BMP_temperature;BMP_pressure;BME280_temperature;BME280_humidity;BME280_pressure;Samples;Min_cycle;Max_cycle;Signal;HPM_P1;HPM_P2
2022/11/26 00:00:41;;;;;;;19.58;3.50;;;6.90;99.90;;;;;;4991830;28;20026;-50
2022/11/26 00:03:09;;;;;;;17.25;4.50;;;6.90;99.90;;;;;;4990994;28;20096;-54
2022/11/26 00:05:34;;;;;;;12.80;3.55;;;6.90;99.90;;;;;;4991781;28;20097;-53
2022/11/26 00:08:00;;;;;;;29.08;11.50;;;7.00;99.90;;;;;;4991965;28;20031;-54
2022/11/26 00:10:29;;;;;;;38.70;11.02;;;7.00;99.90;;;;;;4991399;28;20026;-52
2022/11/26 00:12:56;;;;;;;20.65;6.45;;;7.00;99.90;;;;;;4991028;28;20113;-54
2022/11/26 00:15:27;;;;;;;14.65;4.70;;;7.10;99.90;;;;;;4991709;28;20031;-52
2022/11/26 00:17:53;;;;;;;20.55;5.15;;;7.10;99.90;;;;;;4991590;28;20372;-53
2022/11/26 00:20:23;;;;;;;11.27;4.30;;;7.00;99.90;;;;;;4991474;28;20034;-54
2022/11/26 00:22:54;;;;;;;23.73;4.68;;;6.90;99.90;;;;;;4992078;28;20035;-55
2022/11/26 00:25:23;;;;;;;22.95;5.93;;;6.80;99.90;;;;;;5006845;28;20027;-57
2022/11/26 00:27:51;;;;;;;12.32;4.68;;;6.70;99.90;;;;;;4991501;28;20026;-53
2022/11/26 00:30:22;;;;;;;15.25;4.10;;;6.70;99.90;;;;;;5009340;28;20038;-56
2022/11/26 00:32:48;;;;;;;15.85;4.10;;;6.60;99.90;;;;;;4994905;28;20029;-57
2022/11/26 00:35:15;;;;;;;16.05;4.28;;;6.60;99.90;;;;;;4995076;28;20046;-53
2022/11/26 00:37:53;;;;;;;21.75;4.90;;;6.60;99.90;;;;;;4995264;28;20029;-52
2022/11/26 00:40:29;;;;;;;18.95;4.10;;;6.60;99.90;;;;;;4994951;28;20023;-50
2022/11/26 00:42:56;;;;;;;11.18;3.65;;;6.60;99.90;;;;;;4994267;28;20018;-54
2022/11/26 00:45:28;;;;;;;17.20;4.63;;;6.60;99.90;;;;;;4994954;28;20500;-55
2022/11/26 00:47:54;;;;;;;11.82;4.57;;;6.60;99.90;;;;;;4993790;28;20125;-53
2022/11/26 00:50:23;;;;;;;20.10;5.20;;;6.50;99.90;;;;;;4994604;28;20405;-53
2022/11/26 00:52:51;;;;;;;20.38;5.20;;;6.50;99.90;;;;;;4994105;28;20029;-56
2022/11/26 00:55:30;;;;;;;11.65;4.47;;;6.50;99.90;;;;;;4994680;28;20019;-55
2022/11/26 00:57:56;;;;;;;12.60;4.50;;;6.50;99.90;;;;;;4994579;28;20023;-51
2022/11/26 01:00:25;;;;;;;16.58;4.28;;;6.40;99.90;;;;;;4994626;28;20038;-55
2022/11/26 01:02:51;;;;;;;13.32;3.85;;;6.50;99.90;;;;;;4993969;28;20073;-51
2022/11/26 01:05:17;;;;;;;21.38;3.97;;;6.60;99.90;;;;;;4994814;28;20512;-55
2022/11/26 01:07:44;;;;;;;15.52;4.55;;;6.60;99.90;;;;;;4994381;28;20414;-55
2022/11/26 01:10:19;;;;;;;15.90;4.30;;;6.60;99.90;;;;;;4994219;28;20034;-56
2022/11/26 01:12:45;;;;;;;30.75;4.57;;;6.70;99.90;;;;;;4993615;28;20065;-56
2022/11/26 01:15:11;;;;;;;9.07;3.75;;;6.70;99.90;;;;;;4994411;28;20030;-50
2022/11/26 01:17:37;;;;;;;20.25;4.43;;;6.60;99.90;;;;;;5009267;28;20026;-56
2022/11/26 01:20:10;;;;;;;17.52;3.55;;;6.60;99.90;;;;;;4994158;28;20101;-55
2022/11/26 01:22:35;;;;;;;16.00;3.83;;;6.60;99.90;;;;;;4993446;28;20371;-53
2022/11/26 01:25:01;;;;;;;11.88;3.85;;;6.60;99.90;;;;;;4994143;28;20040;-52
2022/11/26 01:27:26;;;;;;;14.52;4.47;;;6.60;99.90;;;;;;4993905;28;20092;-55
2022/11/26 01:29:52;;;;;;;14.73;4.05;;;6.50;99.90;;;;;;4993915;28;20034;-55
2022/11/26 01:32:17;;;;;;;15.77;4.13;;;6.30;99.90;;;;;;4993374;28;20582;-53
2022/11/26 01:34:43;;;;;;;9.93;3.97;;;6.20;99.90;;;;;;4994098;28;20057;-55
2022/11/26 01:37:13;;;;;;;9.65;3.88;;;6.10;99.90;;;;;;4993753;28;20065;-52
2022/11/26 01:39:38;;;;;;;9.82;3.22;;;6.00;99.90;;;;;;4993833;28;20096;-57
2022/11/26 01:42:30;;;;;;;8.98;4.03;;;5.90;99.90;;;;;;4992989;28;20497;-55
2022/11/26 01:44:56;;;;;;;11.40;3.67;;;5.70;99.90;;;;;;5008791;28;20126;-57
2022/11/26 01:47:29;;;;;;;16.77;4.75;;;5.70;99.90;;;;;;4991788;28;20109;-54
2022/11/26 01:50:32;;;;;;;11.00;4.43;;;5.60;99.90;;;;;;4993457;28;20395;-51
2022/11/26 01:53:02;;;;;;;10.35;4.97;;;5.60;99.90;;;;;;5007859;28;20046;-52
2022/11/26 01:55:41;;;;;;;12.80;5.15;;;5.60;99.90;;;;;;4993435;28;20026;-56
2022/11/26 01:58:11;;;;;;;13.00;4.72;;;5.70;99.90;;;;;;4992185;28;20394;-52
2022/11/26 02:00:37;;;;;;;20.80;6.05;;;5.80;99.90;;;;;;4993370;28;20033;-55
2022/11/26 02:03:03;;;;;;;14.02;5.60;;;5.80;99.90;;;;;;4992687;28;20027;-54
2022/11/26 02:05:33;;;;;;;17.35;6.68;;;5.90;99.90;;;;;;4993520;28;20054;-51
2022/11/26 02:07:59;;;;;;;14.65;4.63;;;6.00;99.90;;;;;;4993162;28;20453;-56
2022/11/26 02:10:25;;;;;;;14.93;5.45;;;6.00;99.90;;;;;;4993164;28;20034;-52
2022/11/26 02:12:50;;;;;;;10.38;4.20;;;6.00;99.90;;;;;;4992498;28;20173;-52
2022/11/26 02:15:16;;;;;;;13.70;3.80;;;5.90;99.90;;;;;;4993174;28;20026;-56
2022/11/26 02:17:57;;;;;;;9.90;4.00;;;5.90;99.90;;;;;;4992964;28;20439;-53
2022/11/26 02:20:53;;;;;;;15.57;4.65;;;5.90;99.90;;;;;;4992972;28;20038;-56
2022/11/26 02:23:45;;;;;;;10.95;5.57;;;5.80;99.90;;;;;;4992425;28;20084;-56
2022/11/26 02:26:25;;;;;;;19.95;6.45;;;5.80;99.90;;;;;;4994673;28;20038;-55
2022/11/26 02:29:18;;;;;;;17.02;5.70;;;5.90;99.90;;;;;;5008910;28;20226;-55
2022/11/26 02:31:52;;;;;;;13.88;5.15;;;5.90;99.90;;;;;;4993024;28;20482;-56
2022/11/26 02:34:43;;;;;;;13.95;5.35;;;6.00;99.90;;;;;;4992566;28;20036;-52
2022/11/26 02:37:20;;;;;;;18.70;5.55;;;6.10;99.90;;;;;;4992861;28;20494;-55
2022/11/26 02:39:46;;;;;;;19.45;5.72;;;6.10;99.90;;;;;;4992770;28;20026;-57
2022/11/26 02:42:31;;;;;;;10.30;4.53;;;6.10;99.90;;;;;;4991845;28;20500;-55
2022/11/26 02:45:16;;;;;;;19.75;5.55;;;6.10;99.90;;;;;;4992818;28;20023;-53
2022/11/26 02:47:45;;;;;;;11.00;5.07;;;6.10;99.90;;;;;;4990940;28;20030;-55
2022/11/26 02:50:17;;;;;;;18.23;5.38;;;6.20;99.90;;;;;;4992468;28;20092;-55
2022/11/26 02:52:43;;;;;;;16.70;5.43;;;6.20;99.90;;;;;;4991522;28;20026;-54
2022/11/26 02:55:11;;;;;;;13.50;5.63;;;6.30;99.90;;;;;;4992402;28;20497;-51
2022/11/26 02:57:43;;;;;;;16.98;6.68;;;6.40;99.90;;;;;;4992323;28;20085;-53
2022/11/26 03:00:09;;;;;;;24.70;6.53;;;6.40;99.90;;;;;;4992412;28;20109;-54
2022/11/26 03:02:57;;;;;;;14.93;5.45;;;6.40;99.90;;;;;;4991696;28;20034;-55
2022/11/26 03:05:22;;;;;;;15.38;6.10;;;6.40;99.90;;;;;;4992437;28;20117;-52
2022/11/26 03:07:51;;;;;;;13.05;5.78;;;6.40;99.90;;;;;;4992396;28;20523;-54
2022/11/26 03:10:23;;;;;;;16.63;5.57;;;6.50;99.90;;;;;;5007111;28;20034;-54
2022/11/26 03:12:49;;;;;;;15.98;5.20;;;6.50;99.90;;;;;;4991517;28;20031;-56
2022/11/26 03:15:14;;;;;;;16.13;4.43;;;6.50;99.90;;;;;;4992247;28;20033;-53
2022/11/26 03:17:40;;;;;;;19.25;5.45;;;6.50;99.90;;;;;;4992113;28;20031;-51
2022/11/26 03:20:06;;;;;;;16.73;4.43;;;6.50;99.90;;;;;;4992020;28;20034;-52
2022/11/26 03:22:32;;;;;;;16.05;5.53;;;6.40;99.90;;;;;;4991408;28;20119;-53
2022/11/26 03:24:57;;;;;;;14.23;4.70;;;6.40;99.90;;;;;;4992476;28;20146;-55
2022/11/26 03:27:23;;;;;;;14.90;4.60;;;6.40;99.90;;;;;;4992271;28;20034;-56
2022/11/26 03:29:48;;;;;;;26.75;5.88;;;6.40;99.90;;;;;;4992362;28;20438;-56
2022/11/26 03:32:14;;;;;;;10.18;4.18;;;6.30;99.90;;;;;;4992237;28;20034;-55
2022/11/26 03:34:39;;;;;;;15.23;4.72;;;6.30;99.90;;;;;;4992921;28;20073;-56
2022/11/26 03:37:05;;;;;;;17.40;4.70;;;6.30;99.90;;;;;;4992744;28;20089;-54
2022/11/26 03:39:30;;;;;;;18.27;4.40;;;6.20;99.90;;;;;;4992279;28;20087;-54
2022/11/26 03:41:56;;;;;;;15.80;4.30;;;6.30;99.90;;;;;;4991257;28;20041;-49
2022/11/26 03:44:21;;;;;;;16.98;5.07;;;6.30;99.90;;;;;;4992310;28;20027;-53
2022/11/26 03:46:47;;;;;;;12.45;4.57;;;6.30;99.90;;;;;;4992075;28;20030;-55
2022/11/26 03:49:12;;;;;;;15.45;5.18;;;6.20;99.90;;;;;;4990260;28;20035;-56
2022/11/26 03:51:38;;;;;;;17.35;5.28;;;6.20;99.90;;;;;;4991817;28;20033;-50
2022/11/26 03:54:03;;;;;;;18.98;6.68;;;6.20;99.90;;;;;;4991317;28;20030;-55
2022/11/26 03:56:29;;;;;;;16.15;6.18;;;6.00;99.90;;;;;;4991929;28;20426;-57
2022/11/26 03:58:54;;;;;;;22.88;8.30;;;6.00;99.90;;;;;;4992055;28;20019;-53
2022/11/26 04:01:20;;;;;;;17.52;7.40;;;6.10;99.90;;;;;;4991717;28;20415;-51
2022/11/26 04:03:45;;;;;;;14.93;7.78;;;6.10;99.90;;;;;;4991583;28;20033;-54
2022/11/26 04:06:11;;;;;;;23.58;8.07;;;6.00;99.90;;;;;;4995948;28;20038;-53
2022/11/26 04:08:36;;;;;;;19.88;7.38;;;5.90;99.90;;;;;;4995607;28;20622;-54
2022/11/26 04:11:02;;;;;;;22.77;8.25;;;5.80;99.90;;;;;;4995304;28;20031;-56
2022/11/26 04:13:27;;;;;;;19.52;7.25;;;5.70;99.90;;;;;;4994880;28;20034;-52
2022/11/26 04:15:53;;;;;;;30.50;7.90;;;5.70;99.90;;;;;;4995375;28;20034;-53
2022/11/26 04:18:18;;;;;;;23.35;8.68;;;5.60;99.90;;;;;;4995273;28;20044;-52
2022/11/26 04:20:44;;;;;;;15.25;7.03;;;5.60;99.90;;;;;;4995188;28;20046;-55
2022/11/26 04:23:09;;;;;;;17.92;7.55;;;5.50;99.90;;;;;;4994531;28;20058;-55
2022/11/26 04:25:35;;;;;;;26.20;8.32;;;5.60;99.90;;;;;;4995285;28;20030;-51
2022/11/26 04:28:00;;;;;;;20.92;8.80;;;5.60;99.90;;;;;;4995204;28;20042;-52
2022/11/26 04:30:26;;;;;;;19.92;7.25;;;5.50;99.90;;;;;;4995089;28;20077;-53
2022/11/26 04:32:52;;;;;;;18.15;8.63;;;5.50;99.90;;;;;;4994309;28;20034;-54
2022/11/26 04:35:17;;;;;;;23.05;7.22;;;5.60;99.90;;;;;;4995092;28;20033;-51
2022/11/26 04:37:43;;;;;;;17.95;7.20;;;5.60;99.90;;;;;;5010056;28;20030;-52
2022/11/26 04:40:09;;;;;;;22.70;7.70;;;5.60;99.90;;;;;;4994769;28;20394;-55
2022/11/26 04:42:34;;;;;;;24.15;7.60;;;5.60;99.90;;;;;;4994026;28;20405;-57
2022/11/26 04:45:00;;;;;;;18.17;7.25;;;5.60;99.90;;;;;;4994852;28;20034;-51
2022/11/26 04:47:26;;;;;;;24.05;8.57;;;5.60;99.90;;;;;;4993022;28;20061;-54
2022/11/26 04:49:51;;;;;;;24.58;7.55;;;5.60;99.90;;;;;;4994705;28;20057;-49
2022/11/26 04:52:17;;;;;;;19.90;8.23;;;5.60;99.90;;;;;;4993919;28;20022;-49
2022/11/26 04:54:43;;;;;;;26.00;8.68;;;5.60;99.90;;;;;;5009662;28;20050;-50
2022/11/26 04:57:08;;;;;;;18.88;7.82;;;5.70;99.90;;;;;;4994620;28;20026;-52
2022/11/26 04:59:34;;;;;;;17.30;7.50;;;5.60;99.90;;;;;;4995347;28;20394;-54
2022/11/26 05:01:59;;;;;;;19.23;8.43;;;5.60;99.90;;;;;;4993992;28;20038;-52
2022/11/26 05:04:26;;;;;;;27.90;8.25;;;5.50;99.90;;;;;;4994770;28;20023;-51
2022/11/26 05:06:52;;;;;;;20.13;8.45;;;5.50;99.90;;;;;;4994417;28;20109;-49
2022/11/26 05:09:18;;;;;;;20.40;8.25;;;5.50;99.90;;;;;;4994581;28;20118;-52
2022/11/26 05:11:43;;;;;;;27.80;10.85;;;5.50;99.90;;;;;;4994148;28;20447;-53
2022/11/26 05:14:09;;;;;;;23.10;8.45;;;5.50;99.90;;;;;;4993492;28;20502;-51
2022/11/26 05:16:34;;;;;;;21.65;8.88;;;5.40;99.90;;;;;;4993898;28;20061;-50
2022/11/26 05:19:00;;;;;;;23.63;7.47;;;5.50;99.90;;;;;;4993957;28;20025;-49
2022/11/26 05:21:25;;;;;;;27.75;8.52;;;5.50;99.90;;;;;;4993523;28;20061;-55
2022/11/26 05:23:51;;;;;;;22.98;9.05;;;5.40;99.90;;;;;;4993423;28;20595;-54
2022/11/26 05:26:16;;;;;;;22.65;10.02;;;5.40;99.90;;;;;;4993798;28;20062;-52
2022/11/26 05:28:42;;;;;;;20.13;8.70;;;5.40;99.90;;;;;;4994087;28;20035;-57
2022/11/26 05:31:07;;;;;;;23.05;8.77;;;5.40;99.90;;;;;;4994040;28;20034;-53
2022/11/26 05:33:33;;;;;;;17.90;9.30;;;5.30;99.90;;;;;;4993239;28;20443;-53
2022/11/26 05:35:59;;;;;;;25.08;9.82;;;5.30;99.90;;;;;;4993797;28;20027;-53
2022/11/26 05:38:25;;;;;;;21.27;9.00;;;5.20;99.90;;;;;;4993750;28;20034;-55
2022/11/26 05:40:50;;;;;;;24.08;9.35;;;5.20;99.90;;;;;;4993818;28;20038;-53
2022/11/26 05:43:16;;;;;;;28.02;10.82;;;5.20;99.90;;;;;;4991686;28;20022;-55
2022/11/26 05:45:41;;;;;;;28.25;10.07;;;5.10;99.90;;;;;;4993700;28;20030;-54
2022/11/26 05:48:07;;;;;;;21.80;9.15;;;5.10;99.90;;;;;;4991944;28;20023;-53
2022/11/26 05:50:32;;;;;;;22.58;9.73;;;5.10;99.90;;;;;;4993434;28;20079;-49
2022/11/26 05:52:58;;;;;;;26.83;9.98;;;5.10;99.90;;;;;;4992859;28;20027;-55
2022/11/26 05:55:24;;;;;;;26.77;9.98;;;5.10;99.90;;;;;;4993462;28;20134;-56
2022/11/26 05:57:50;;;;;;;23.67;9.13;;;5.10;99.90;;;;;;4993413;28;20026;-50
2022/11/26 06:00:15;;;;;;;25.30;11.07;;;5.00;99.90;;;;;;4993419;28;20059;-50
2022/11/26 06:02:41;;;;;;;27.17;10.20;;;5.00;99.90;;;;;;4992684;28;20077;-54
2022/11/26 06:05:08;;;;;;;31.13;11.30;;;5.00;99.90;;;;;;4992960;28;20101;-55
2022/11/26 06:07:34;;;;;;;26.50;9.00;;;5.00;99.90;;;;;;4993253;28;20502;-53
2022/11/26 06:09:59;;;;;;;29.42;11.07;;;5.00;99.90;;;;;;4992981;28;20118;-55
2022/11/26 06:12:25;;;;;;;36.83;9.73;;;5.00;99.90;;;;;;5007343;28;20109;-55
2022/11/26 06:14:50;;;;;;;22.98;10.57;;;4.90;99.90;;;;;;4993319;28;20061;-52
2022/11/26 06:17:16;;;;;;;31.05;10.48;;;4.90;99.90;;;;;;4992982;28;20027;-56
2022/11/26 06:19:42;;;;;;;25.20;8.90;;;4.80;99.90;;;;;;4993147;28;20023;-56
2022/11/26 06:22:08;;;;;;;32.40;10.52;;;4.80;99.90;;;;;;4993429;28;20047;-53
2022/11/26 06:24:33;;;;;;;32.45;9.70;;;4.80;99.90;;;;;;4993072;28;20522;-52
2022/11/26 06:26:59;;;;;;;23.77;8.50;;;4.80;99.90;;;;;;4992018;28;20026;-55
2022/11/26 06:29:24;;;;;;;24.55;10.48;;;4.80;99.90;;;;;;4993060;28;20057;-53
2022/11/26 06:31:50;;;;;;;28.55;10.23;;;4.80;99.90;;;;;;4992463;28;20034;-56
2022/11/26 06:34:15;;;;;;;26.13;9.43;;;4.80;99.90;;;;;;4992626;28;20106;-52
2022/11/26 06:36:41;;;;;;;31.58;9.27;;;4.80;99.90;;;;;;5008078;28;20029;-55
2022/11/26 06:39:08;;;;;;;19.63;9.15;;;4.80;99.90;;;;;;4993419;28;20022;-54
2022/11/26 06:41:34;;;;;;;19.73;8.93;;;4.80;99.90;;;;;;4993220;28;20172;-55
2022/11/26 06:43:59;;;;;;;26.25;9.63;;;4.80;99.90;;;;;;4992179;28;20530;-57
2022/11/26 06:46:25;;;;;;;23.65;10.32;;;4.70;99.90;;;;;;4992690;28;20402;-55
2022/11/26 06:48:50;;;;;;;22.52;9.55;;;4.70;99.90;;;;;;4991528;28;20049;-57
2022/11/26 06:51:19;;;;;;;30.52;10.25;;;4.70;99.90;;;;;;4992261;28;20050;-54
2022/11/26 06:53:45;;;;;;;19.83;9.73;;;4.60;99.90;;;;;;4991832;28;20026;-54
2022/11/26 06:56:12;;;;;;;26.60;10.52;;;4.60;99.90;;;;;;4992361;28;20026;-55
2022/11/26 06:58:38;;;;;;;24.40;10.30;;;4.60;99.90;;;;;;4992387;28;20015;-57
2022/11/26 07:01:13;;;;;;;28.17;11.10;;;4.70;99.90;;;;;;4992374;28;20034;-53
2022/11/26 07:03:39;;;;;;;23.03;9.63;;;4.70;99.90;;;;;;4991735;28;20505;-55
2022/11/26 07:06:13;;;;;;;23.10;10.80;;;4.70;99.90;;;;;;4992210;28;20517;-52
2022/11/26 07:08:39;;;;;;;25.25;9.98;;;4.80;99.90;;;;;;4992451;28;20027;-53
2022/11/26 07:11:04;;;;;;;17.52;9.90;;;4.90;99.90;;;;;;4992181;28;20030;-49
2022/11/26 07:13:30;;;;;;;16.88;10.48;;;4.90;99.90;;;;;;4991722;28;20022;-52
2022/11/26 07:16:01;;;;;;;24.67;10.60;;;4.90;99.90;;;;;;4992443;28;20027;-54
2022/11/26 07:18:27;;;;;;;27.48;10.95;;;5.00;99.90;;;;;;4992403;28;20019;-55
2022/11/26 07:20:52;;;;;;;27.10;10.52;;;5.00;99.90;;;;;;4992201;28;20034;-51
2022/11/26 07:23:18;;;;;;;24.67;9.38;;;5.00;99.90;;;;;;4991626;28;20120;-54
2022/11/26 07:25:43;;;;;;;21.73;8.68;;;5.00;99.90;;;;;;4992435;28;20035;-53
2022/11/26 07:28:09;;;;;;;21.35;9.65;;;5.10;99.90;;;;;;4992358;28;20442;-56
2022/11/26 07:30:34;;;;;;;15.85;10.05;;;5.10;99.90;;;;;;4992036;28;20034;-50
2022/11/26 07:33:00;;;;;;;20.33;9.90;;;5.10;99.90;;;;;;4991347;28;20061;-55
2022/11/26 07:35:25;;;;;;;26.15;9.60;;;5.10;99.90;;;;;;4991926;28;20458;-50
2022/11/26 07:37:51;;;;;;;16.33;8.30;;;5.10;99.90;;;;;;4992925;28;20030;-47
2022/11/26 07:40:16;;;;;;;19.45;9.20;;;5.10;99.90;;;;;;4995963;28;20030;-56
2022/11/26 07:42:42;;;;;;;17.95;8.73;;;5.10;99.90;;;;;;4995418;28;20062;-54
2022/11/26 07:45:07;;;;;;;21.05;9.18;;;5.20;99.90;;;;;;4996256;28;20033;-56
2022/11/26 07:47:33;;;;;;;28.17;9.40;;;5.20;99.90;;;;;;4994108;28;20050;-54
2022/11/26 07:49:59;;;;;;;14.80;8.90;;;5.20;99.90;;;;;;4995860;28;20068;-57
2022/11/26 07:52:24;;;;;;;24.20;9.43;;;5.20;99.90;;;;;;4995535;28;20022;-53
2022/11/26 07:54:50;;;;;;;14.52;8.50;;;5.20;99.90;;;;;;4995827;28;20026;-53
2022/11/26 07:57:15;;;;;;;12.25;7.50;;;5.30;99.90;;;;;;4995369;28;20026;-55
2022/11/26 07:59:41;;;;;;;17.50;9.73;;;5.30;99.90;;;;;;4995813;28;20405;-55
2022/11/26 08:02:12;;;;;;;23.33;10.30;;;5.30;99.90;;;;;;4995136;28;20088;-54
2022/11/26 08:04:37;;;;;;;19.05;9.88;;;5.30;99.90;;;;;;4995704;28;20090;-58
2022/11/26 08:07:03;;;;;;;20.80;10.98;;;5.30;99.90;;;;;;4995447;28;20029;-53
2022/11/26 08:09:28;;;;;;;22.52;9.38;;;5.40;99.90;;;;;;4995490;28;20026;-54
2022/11/26 08:11:54;;;;;;;17.63;8.55;;;5.40;99.90;;;;;;4994779;28;20057;-56
2022/11/26 08:14:19;;;;;;;21.55;10.27;;;5.40;99.90;;;;;;4994867;28;20164;-55
2022/11/26 08:16:45;;;;;;;17.65;11.05;;;5.50;99.90;;;;;;4995323;28;20150;-54
2022/11/26 08:19:12;;;;;;;17.08;9.98;;;5.50;99.90;;;;;;4995454;28;20034;-53
2022/11/26 08:21:38;;;;;;;18.02;10.57;;;5.60;99.90;;;;;;4995093;28;20085;-52
2022/11/26 08:24:04;;;;;;;24.55;10.48;;;5.60;99.90;;;;;;4994513;28;20490;-53
2022/11/26 08:26:30;;;;;;;19.90;10.20;;;5.60;99.90;;;;;;4995065;28;20437;-54
2022/11/26 08:28:56;;;;;;;15.35;10.32;;;5.60;99.90;;;;;;5009854;28;20081;-53
2022/11/26 08:31:23;;;;;;;21.20;11.07;;;5.60;99.90;;;;;;5010171;28;20525;-54
2022/11/26 08:33:49;;;;;;;19.25;10.60;;;5.60;99.90;;;;;;4994319;28;20042;-56
2022/11/26 08:36:15;;;;;;;22.02;10.27;;;5.70;99.90;;;;;;5009864;28;20517;-54
2022/11/26 08:38:40;;;;;;;25.27;11.48;;;5.70;99.90;;;;;;4995243;28;20059;-57
2022/11/26 08:41:09;;;;;;;22.80;11.60;;;5.80;99.90;;;;;;4995296;28;20056;-54
2022/11/26 08:43:36;;;;;;;18.85;10.32;;;5.90;99.90;;;;;;4993980;28;20117;-52
2022/11/26 08:46:02;;;;;;;21.23;9.10;;;6.40;99.90;;;;;;4994970;28;20033;-53
2022/11/26 08:48:28;;;;;;;19.02;8.82;;;7.00;99.90;;;;;;5008824;28;20034;-57
2022/11/26 08:51:04;;;;;;;11.07;8.10;;;7.80;99.90;;;;;;4993980;28;20023;-51
2022/11/26 08:53:31;;;;;;;12.75;6.78;;;8.70;99.90;;;;;;4994098;28;20030;-50
2022/11/26 08:56:05;;;;;;;12.77;7.07;;;9.40;99.90;;;;;;4994647;28;20026;-54
2022/11/26 08:58:37;;;;;;;12.85;7.40;;;9.90;99.90;;;;;;5009478;28;20030;-52
2022/11/26 09:01:10;;;;;;;12.13;6.97;;;10.50;99.90;;;;;;4994564;28;20073;-53
2022/11/26 09:03:36;;;;;;;15.18;6.82;;;11.10;99.90;;;;;;4993777;28;20037;-54
2022/11/26 09:06:04;;;;;;;11.75;6.07;;;11.60;99.90;;;;;;4994395;28;20521;-52
2022/11/26 09:08:30;;;;;;;11.13;6.53;;;12.10;99.90;;;;;;4994841;28;20247;-50
2022/11/26 09:10:56;;;;;;;12.02;5.40;;;12.30;99.90;;;;;;4994096;28;20030;-53
2022/11/26 09:13:22;;;;;;;11.55;5.53;;;12.60;99.90;;;;;;5008651;28;20025;-53
2022/11/26 09:15:49;;;;;;;14.82;6.22;;;12.70;99.90;;;;;;4994370;28;20026;-52
2022/11/26 09:18:15;;;;;;;8.35;4.78;;;13.00;99.90;;;;;;5009152;28;20199;-54
2022/11/26 09:20:40;;;;;;;9.48;5.25;;;13.00;99.90;;;;;;4994228;28;20042;-46
2022/11/26 09:23:06;;;;;;;11.13;6.03;;;13.30;99.90;;;;;;4993517;28;20080;-49
2022/11/26 09:25:31;;;;;;;9.85;5.13;;;13.60;99.90;;;;;;4989907;28;20029;-51
2022/11/26 09:27:57;;;;;;;8.98;5.20;;;13.70;99.90;;;;;;4987750;28;20030;-52
2022/11/26 09:30:22;;;;;;;9.80;4.90;;;13.70;99.90;;;;;;4993888;28;20117;-50
2022/11/26 09:32:48;;;;;;;10.80;4.70;;;13.80;99.90;;;;;;4993234;28;20490;-56
2022/11/26 09:35:13;;;;;;;12.85;4.80;;;13.60;99.90;;;;;;5008987;28;20054;-47
2022/11/26 09:37:39;;;;;;;12.25;5.45;;;13.80;99.90;;;;;;4993312;28;20030;-50
2022/11/26 09:40:05;;;;;;;13.20;5.25;;;13.90;99.90;;;;;;4993752;28;20490;-48
2022/11/26 09:42:39;;;;;;;12.88;6.10;;;13.80;99.90;;;;;;4993186;28;20062;-48
2022/11/26 09:45:31;;;;;;;10.77;4.55;;;13.50;99.90;;;;;;4992687;28;20042;-52
2022/11/26 09:47:57;;;;;;;15.73;5.25;;;13.30;99.90;;;;;;4992987;28;20558;-52
2022/11/26 09:50:30;;;;;;;7.85;4.10;;;13.40;99.90;;;;;;4992723;28;20042;-46
2022/11/26 09:53:00;;;;;;;7.38;4.25;;;13.30;99.90;;;;;;4992614;28;20030;-44
2022/11/26 09:55:39;;;;;;;8.45;3.80;;;13.20;99.90;;;;;;4993744;28;20046;-45
2022/11/26 09:58:26;;;;;;;7.07;4.95;;;13.30;99.90;;;;;;4993608;28;20029;-46
2022/11/26 10:00:54;;;;;;;17.80;8.68;;;13.50;99.90;;;;;;4993114;28;20073;-47
2022/11/26 10:03:22;;;;;;;8.07;3.80;;;13.60;99.90;;;;;;4992287;28;20029;-44
2022/11/26 10:06:19;;;;;;;9.57;3.88;;;14.00;99.90;;;;;;4990826;28;20038;-44
2022/11/26 10:09:13;;;;;;;11.43;4.03;;;14.10;99.90;;;;;;4993314;28;20493;-44
2022/11/26 10:12:03;;;;;;;11.45;5.43;;;14.00;99.90;;;;;;4993077;28;20116;-44
2022/11/26 10:14:48;;;;;;;8.43;3.75;;;14.00;99.90;;;;;;4995085;28;20018;-43
2022/11/26 10:17:42;;;;;;;11.73;4.57;;;13.70;99.90;;;;;;4995608;28;20057;-44
2022/11/26 10:20:21;;;;;;;7.95;3.90;;;13.70;99.90;;;;;;4996527;28;20031;-43
2022/11/26 10:22:55;;;;;;;7.45;3.85;;;13.40;99.90;;;;;;4995146;28;20022;-43
2022/11/26 10:25:25;;;;;;;10.40;3.53;;;13.40;99.90;;;;;;5007850;28;20030;-46
2022/11/26 10:27:54;;;;;;;7.45;2.97;;;13.40;99.90;;;;;;4991249;28;20465;-44
2022/11/26 10:30:29;;;;;;;6.57;3.83;;;13.20;99.90;;;;;;4991001;28;20022;-45
2022/11/26 10:32:59;;;;;;;7.95;3.80;;;12.80;99.90;;;;;;4991329;28;20254;-48
2022/11/26 10:35:27;;;;;;;7.10;4.10;;;12.50;99.90;;;;;;4992446;28;20116;-47
2022/11/26 10:37:54;;;;;;;9.20;3.33;;;12.20;99.90;;;;;;4992917;28;20021;-47
2022/11/26 10:40:24;;;;;;;12.00;3.95;;;11.70;99.90;;;;;;4993062;28;20030;-46
2022/11/26 10:42:55;;;;;;;8.90;4.28;;;11.50;99.90;;;;;;5007277;28;20565;-45
2022/11/26 10:45:24;;;;;;;9.85;5.03;;;11.20;99.90;;;;;;4992781;28;20025;-47
2022/11/26 10:47:50;;;;;;;14.18;4.45;;;10.80;99.90;;;;;;4992747;28;20041;-47
2022/11/26 10:50:23;;;;;;;23.67;4.55;;;10.50;99.90;;;;;;4992656;28;20490;-44
2022/11/26 10:52:50;;;;;;;10.45;3.75;;;10.20;99.90;;;;;;4992055;28;20085;-45
2022/11/26 10:55:26;;;;;;;7.90;3.72;;;10.10;99.90;;;;;;4992649;28;20319;-45
2022/11/26 10:58:17;;;;;;;12.52;3.45;;;9.90;99.90;;;;;;4992827;28;20664;-45
2022/11/26 11:00:49;;;;;;;11.93;4.28;;;9.70;99.90;;;;;;4988009;28;20506;-44
2022/11/26 11:03:28;;;;;;;11.55;4.70;;;9.40;99.90;;;;;;5006904;28;20034;-44
2022/11/26 11:06:18;;;;;;;11.02;3.63;;;9.30;99.90;;;;;;4991490;28;20114;-44
2022/11/26 11:08:46;;;;;;;7.43;3.70;;;9.10;99.90;;;;;;4993174;28;20030;-45
2022/11/26 11:11:29;;;;;;;8.88;4.30;;;8.90;99.90;;;;;;4992790;28;20108;-42
2022/11/26 11:13:56;;;;;;;5.75;3.70;;;8.70;99.90;;;;;;4992139;28;20028;-43
2022/11/26 11:16:29;;;;;;;6.18;4.47;;;8.60;99.90;;;;;;4993178;28;20030;-44
2022/11/26 11:18:57;;;;;;;18.58;10.35;;;8.50;99.90;;;;;;4993096;28;20030;-44
2022/11/26 11:21:30;;;;;;;36.72;16.85;;;8.40;99.90;;;;;;4993255;28;20031;-42
2022/11/26 11:24:16;;;;;;;7.90;4.72;;;8.20;99.90;;;;;;4993230;28;20036;-45
2022/11/26 11:26:45;;;;;;;10.75;4.80;;;8.10;99.90;;;;;;5008403;28;20026;-44
2022/11/26 11:29:32;;;;;;;8.40;4.63;;;8.10;99.90;;;;;;4993593;28;20034;-50
2022/11/26 11:32:00;;;;;;;8.65;4.75;;;8.10;99.90;;;;;;5007876;28;20034;-45
2022/11/26 11:34:43;;;;;;;7.78;4.90;;;8.10;99.90;;;;;;5008276;28;20026;-46
2022/11/26 11:37:13;;;;;;;8.40;4.18;;;8.00;99.90;;;;;;4993552;28;20029;-44
2022/11/26 11:39:39;;;;;;;11.20;5.32;;;7.90;99.90;;;;;;4993480;28;20497;-45
2022/11/26 11:42:27;;;;;;;11.45;4.47;;;8.00;99.90;;;;;;4992682;28;20048;-43
2022/11/26 11:44:53;;;;;;;8.77;5.07;;;8.00;99.90;;;;;;4993687;28;20027;-43
2022/11/26 11:47:32;;;;;;;12.93;4.50;;;7.90;99.90;;;;;;4993730;28;20391;-44
2022/11/26 11:50:07;;;;;;;12.15;4.40;;;7.80;99.90;;;;;;4993704;28;20379;-44
2022/11/26 11:53:02;;;;;;;9.90;4.60;;;7.80;99.90;;;;;;4992520;28;20015;-45
2022/11/26 11:56:02;;;;;;;11.57;4.78;;;7.70;99.90;;;;;;4993597;28;20015;-40
2022/11/26 11:58:47;;;;;;;9.48;4.20;;;7.80;99.90;;;;;;4992260;28;20026;-48
2022/11/26 12:01:26;;;;;;;10.57;4.50;;;7.70;99.90;;;;;;4992604;28;20022;-47
2022/11/26 12:04:05;;;;;;;8.73;4.35;;;7.80;99.90;;;;;;4992030;28;20089;-45
2022/11/26 12:06:46;;;;;;;12.82;4.35;;;7.80;99.90;;;;;;4990711;28;20029;-44
2022/11/26 12:09:20;;;;;;;10.35;4.40;;;7.80;99.90;;;;;;4992402;28;20034;-48
2022/11/26 12:12:06;;;;;;;6.90;4.18;;;7.80;99.90;;;;;;5006815;28;20106;-47
2022/11/26 12:14:42;;;;;;;;;;;7.80;99.90;;;;;;4992662;28;20053;-52
2022/11/26 12:17:21;;;;;;;11.18;4.40;;;7.70;99.90;;;;;;4992086;28;19964;-44
2022/11/26 12:19:53;;;;;;;6.35;4.32;;;7.70;99.90;;;;;;4992211;28;20159;-47
2022/11/26 12:22:28;;;;;;;8.93;4.72;;;7.80;99.90;;;;;;4991220;28;20406;-50
2022/11/26 12:25:22;;;;;;;15.13;5.30;;;7.80;99.90;;;;;;5008057;28;20037;-49
2022/11/26 12:28:03;;;;;;;44.72;24.60;;;7.90;99.90;;;;;;4991485;28;20030;-45
2022/11/26 12:31:07;;;;;;;12.73;8.13;;;8.00;99.90;;;;;;4989588;28;20046;-49
2022/11/26 12:33:44;;;;;;;6.53;3.63;;;8.10;99.90;;;;;;4985683;28;20038;-49
2022/11/26 12:36:37;;;;;;;8.15;4.50;;;8.20;99.90;;;;;;5010233;28;20050;-44
2022/11/26 12:39:16;;;;;;;11.68;5.10;;;8.20;99.90;;;;;;4995318;28;20029;-49
2022/11/26 12:41:52;;;;;;;14.85;4.72;;;8.30;99.90;;;;;;4995015;28;20479;-47
2022/11/26 12:44:34;;;;;;;9.23;4.65;;;8.30;99.90;;;;;;4992262;28;20077;-51
2022/11/26 12:47:29;;;;;;;11.60;4.90;;;8.30;99.90;;;;;;4994739;28;20038;-49
2022/11/26 12:50:03;;;;;;;11.43;4.43;;;8.30;99.90;;;;;;4994995;28;20034;-47
2022/11/26 12:53:11;;;;;;;12.95;5.10;;;8.40;99.90;;;;;;4994189;28;20023;-45
2022/11/26 12:55:52;;;;;;;8.30;4.70;;;8.30;99.90;;;;;;4994951;28;20049;-50
2022/11/26 12:58:30;;;;;;;9.52;4.40;;;8.20;99.90;;;;;;5009586;28;20395;-46
2022/11/26 13:00:57;;;;;;;9.75;4.30;;;8.20;99.90;;;;;;4994664;28;20097;-46